sensor_id;sensor_type;location;lat;lon;timestamp;P1;durP1;ratioP1;P2;durP2;ratioP2
10303;SDS011;5197;48.152;8.590;2023-06-14T00:01:35;3.30;;;3.10;;
10303;SDS011;5197;48.152;8.590;2023-06-14T00:04:02;3.03;;;2.83;;
10303;SDS011;5197;48.152;8.590;2023-06-14T00:06:29;3.47;;;2.83;;
10303;SDS011;5197;48.152;8.590;2023-06-14T00:08:57;5.27;;;3.37;;
10303;SDS011;5197;48.152;8.590;2023-06-14T00:11:24;3.93;;;3.00;;
10303;SDS011;5197;48.152;8.590;2023-06-14T00:13:53;3.53;;;3.23;;
10303;SDS011;5197;48.152;8.590;2023-06-14T00:16:20;3.70;;;3.40;;
10303;SDS011;5197;48.152;8.590;2023-06-14T00:18:47;3.67;;;2.93;;
10303;SDS011;5197;48.152;8.590;2023-06-14T00:21:14;3.70;;;3.40;;
10303;SDS011;5197;48.152;8.590;2023-06-14T00:23:41;3.53;;;3.13;;
10303;SDS011;5197;48.152;8.590;2023-06-14T00:26:08;4.17;;;3.40;;
10303;SDS011;5197;48.152;8.590;2023-06-14T00:28:36;3.87;;;3.47;;
10303;SDS011;5197;48.152;8.590;2023-06-14T00:31:03;3.20;;;3.00;;
10303;SDS011;5197;48.152;8.590;2023-06-14T00:33:30;4.00;;;3.60;;
10303;SDS011;5197;48.152;8.590;2023-06-14T00:35:57;5.13;;;3.10;;
10303;SDS011;5197;48.152;8.590;2023-06-14T00:38:24;3.40;;;3.03;;
10303;SDS011;5197;48.152;8.590;2023-06-14T00:40:51;6.70;;;3.30;;
10303;SDS011;5197;48.152;8.590;2023-06-14T00:43:18;3.70;;;3.00;;
10303;SDS011;5197;48.152;8.590;2023-06-14T00:45:45;4.00;;;3.70;;
10303;SDS011;5197;48.152;8.590;2023-06-14T00:48:12;3.80;;;3.40;;
10303;SDS011;5197;48.152;8.590;2023-06-14T00:50:40;3.70;;;3.40;;
10303;SDS011;5197;48.152;8.590;2023-06-14T00:53:08;4.40;;;3.23;;
10303;SDS011;5197;48.152;8.590;2023-06-14T00:55:35;2.97;;;2.77;;
10303;SDS011;5197;48.152;8.590;2023-06-14T00:58:02;7.53;;;3.40;;
10303;SDS011;5197;48.152;8.590;2023-06-14T01:00:29;3.90;;;3.33;;
10303;SDS011;5197;48.152;8.590;2023-06-14T01:02:56;4.57;;;3.33;;
10303;SDS011;5197;48.152;8.590;2023-06-14T01:05:24;5.83;;;3.30;;
10303;SDS011;5197;48.152;8.590;2023-06-14T01:10:52;7.20;;;3.10;;
10303;SDS011;5197;48.152;8.590;2023-06-14T01:13:29;5.47;;;3.50;;
10303;SDS011;5197;48.152;8.590;2023-06-14T01:16:00;3.30;;;3.10;;
10303;SDS011;5197;48.152;8.590;2023-06-14T01:18:30;4.83;;;3.10;;
10303;SDS011;5197;48.152;8.590;2023-06-14T01:20:58;3.77;;;3.47;;
10303;SDS011;5197;48.152;8.590;2023-06-14T01:23:25;4.67;;;3.63;;
10303;SDS011;5197;48.152;8.590;2023-06-14T01:25:59;3.73;;;3.33;;
10303;SDS011;5197;48.152;8.590;2023-06-14T01:28:30;4.97;;;3.00;;
10303;SDS011;5197;48.152;8.590;2023-06-14T01:31:00;4.43;;;3.37;;
10303;SDS011;5197;48.152;8.590;2023-06-14T01:33:32;3.30;;;3.10;;
10303;SDS011;5197;48.152;8.590;2023-06-14T01:36:00;5.10;;;3.50;;
10303;SDS011;5197;48.152;8.590;2023-06-14T01:38:29;4.87;;;3.23;;
10303;SDS011;5197;48.152;8.590;2023-06-14T01:40:58;3.63;;;2.97;;
10303;SDS011;5197;48.152;8.590;2023-06-14T01:43:26;3.43;;;3.13;;
10303;SDS011;5197;48.152;8.590;2023-06-14T01:45:57;6.37;;;3.30;;
10303;SDS011;5197;48.152;8.590;2023-06-14T01:48:26;3.73;;;3.13;;
10303;SDS011;5197;48.152;8.590;2023-06-14T01:50:53;3.60;;;3.30;;
10303;SDS011;5197;48.152;8.590;2023-06-14T01:53:20;4.13;;;3.30;;
10303;SDS011;5197;48.152;8.590;2023-06-14T01:55:47;4.00;;;3.70;;
10303;SDS011;5197;48.152;8.590;2023-06-14T01:58:15;4.73;;;3.47;;
10303;SDS011;5197;48.152;8.590;2023-06-14T02:00:43;3.97;;;3.40;;
10303;SDS011;5197;48.152;8.590;2023-06-14T02:03:10;4.43;;;3.10;;
10303;SDS011;5197;48.152;8.590;2023-06-14T02:05:38;3.20;;;3.00;;
10303;SDS011;5197;48.152;8.590;2023-06-14T02:08:06;3.33;;;3.10;;
10303;SDS011;5197;48.152;8.590;2023-06-14T02:10:34;4.03;;;3.63;;
10303;SDS011;5197;48.152;8.590;2023-06-14T02:13:02;3.60;;;3.30;;
10303;SDS011;5197;48.152;8.590;2023-06-14T02:15:29;3.67;;;3.37;;
10303;SDS011;5197;48.152;8.590;2023-06-14T02:18:00;7.30;;;3.93;;
10303;SDS011;5197;48.152;8.590;2023-06-14T02:20:28;3.50;;;3.20;;
10303;SDS011;5197;48.152;8.590;2023-06-14T02:22:56;3.50;;;3.20;;
10303;SDS011;5197;48.152;8.590;2023-06-14T02:25:24;4.23;;;3.30;;
10303;SDS011;5197;48.152;8.590;2023-06-14T02:27:51;4.30;;;3.20;;
10303;SDS011;5197;48.152;8.590;2023-06-14T02:30:18;5.07;;;3.60;;
10303;SDS011;5197;48.152;8.590;2023-06-14T02:32:46;3.70;;;3.27;;
10303;SDS011;5197;48.152;8.590;2023-06-14T02:35:15;4.27;;;3.33;;
10303;SDS011;5197;48.152;8.590;2023-06-14T02:37:42;3.57;;;3.27;;
10303;SDS011;5197;48.152;8.590;2023-06-14T02:40:09;5.77;;;3.27;;
10303;SDS011;5197;48.152;8.590;2023-06-14T02:42:38;3.77;;;3.43;;
10303;SDS011;5197;48.152;8.590;2023-06-14T02:45:05;5.60;;;3.53;;
10303;SDS011;5197;48.152;8.590;2023-06-14T02:47:33;4.23;;;3.57;;
10303;SDS011;5197;48.152;8.590;2023-06-14T02:50:00;4.03;;;3.00;;
10303;SDS011;5197;48.152;8.590;2023-06-14T02:52:27;5.10;;;3.47;;
10303;SDS011;5197;48.152;8.590;2023-06-14T02:54:55;3.93;;;3.00;;
10303;SDS011;5197;48.152;8.590;2023-06-14T02:57:22;3.40;;;3.10;;
10303;SDS011;5197;48.152;8.590;2023-06-14T02:59:50;5.23;;;3.70;;
10303;SDS011;5197;48.152;8.590;2023-06-14T03:02:17;4.17;;;3.33;;
10303;SDS011;5197;48.152;8.590;2023-06-14T03:04:44;3.70;;;3.40;;
10303;SDS011;5197;48.152;8.590;2023-06-14T03:07:13;6.10;;;3.70;;
10303;SDS011;5197;48.152;8.590;2023-06-14T03:09:46;5.57;;;3.10;;
10303;SDS011;5197;48.152;8.590;2023-06-14T03:12:15;4.40;;;3.47;;
10303;SDS011;5197;48.152;8.590;2023-06-14T03:14:42;6.37;;;4.03;;
10303;SDS011;5197;48.152;8.590;2023-06-14T03:17:13;3.80;;;3.50;;
10303;SDS011;5197;48.152;8.590;2023-06-14T03:19:41;3.93;;;3.53;;
10303;SDS011;5197;48.152;8.590;2023-06-14T03:22:08;4.17;;;3.23;;
10303;SDS011;5197;48.152;8.590;2023-06-14T03:24:38;7.70;;;3.40;;
10303;SDS011;5197;48.152;8.590;2023-06-14T03:27:05;5.13;;;3.47;;
10303;SDS011;5197;48.152;8.590;2023-06-14T03:29:32;7.33;;;3.87;;
10303;SDS011;5197;48.152;8.590;2023-06-14T03:32:02;4.17;;;3.70;;
10303;SDS011;5197;48.152;8.590;2023-06-14T03:34:30;3.83;;;3.43;;
10303;SDS011;5197;48.152;8.590;2023-06-14T03:36:57;3.87;;;3.57;;
10303;SDS011;5197;48.152;8.590;2023-06-14T03:39:24;6.63;;;3.87;;
10303;SDS011;5197;48.152;8.590;2023-06-14T03:41:51;7.67;;;3.87;;
10303;SDS011;5197;48.152;8.590;2023-06-14T03:44:18;11.83;;;4.00;;
10303;SDS011;5197;48.152;8.590;2023-06-14T03:46:46;3.93;;;3.63;;
10303;SDS011;5197;48.152;8.590;2023-06-14T03:49:13;8.07;;;3.90;;
10303;SDS011;5197;48.152;8.590;2023-06-14T03:51:40;4.20;;;3.80;;
10303;SDS011;5197;48.152;8.590;2023-06-14T03:54:07;4.10;;;3.73;;
10303;SDS011;5197;48.152;8.590;2023-06-14T03:56:37;7.23;;;4.57;;
10303;SDS011;5197;48.152;8.590;2023-06-14T03:59:05;4.07;;;3.77;;
10303;SDS011;5197;48.152;8.590;2023-06-14T04:01:32;6.47;;;3.40;;
10303;SDS011;5197;48.152;8.590;2023-06-14T04:04:00;4.00;;;3.70;;
10303;SDS011;5197;48.152;8.590;2023-06-14T04:06:27;6.03;;;3.93;;
10303;SDS011;5197;48.152;8.590;2023-06-14T04:08:59;7.13;;;3.60;;
10303;SDS011;5197;48.152;8.590;2023-06-14T04:11:30;3.80;;;3.50;;
10303;SDS011;5197;48.152;8.590;2023-06-14T04:13:58;6.10;;;3.80;;
10303;SDS011;5197;48.152;8.590;2023-06-14T04:16:26;5.13;;;4.13;;
10303;SDS011;5197;48.152;8.590;2023-06-14T04:18:54;4.30;;;3.87;;
10303;SDS011;5197;48.152;8.590;2023-06-14T04:21:22;4.40;;;4.00;;
10303;SDS011;5197;48.152;8.590;2023-06-14T04:23:49;5.73;;;3.87;;
10303;SDS011;5197;48.152;8.590;2023-06-14T04:26:19;7.43;;;3.60;;
10303;SDS011;5197;48.152;8.590;2023-06-14T04:28:50;4.30;;;3.83;;
10303;SDS011;5197;48.152;8.590;2023-06-14T04:31:17;4.70;;;3.83;;
10303;SDS011;5197;48.152;8.590;2023-06-14T04:33:45;3.47;;;3.27;;
10303;SDS011;5197;48.152;8.590;2023-06-14T04:36:13;4.57;;;3.53;;
10303;SDS011;5197;48.152;8.590;2023-06-14T04:38:44;4.20;;;3.40;;
10303;SDS011;5197;48.152;8.590;2023-06-14T04:41:12;10.10;;;4.17;;
10303;SDS011;5197;48.152;8.590;2023-06-14T04:43:39;6.17;;;4.00;;
10303;SDS011;5197;48.152;8.590;2023-06-14T04:46:07;7.70;;;4.07;;
10303;SDS011;5197;48.152;8.590;2023-06-14T04:48:38;4.33;;;3.87;;
10303;SDS011;5197;48.152;8.590;2023-06-14T04:51:07;6.67;;;4.17;;
10303;SDS011;5197;48.152;8.590;2023-06-14T04:53:35;6.73;;;4.10;;
10303;SDS011;5197;48.152;8.590;2023-06-14T04:56:02;5.23;;;3.70;;
10303;SDS011;5197;48.152;8.590;2023-06-14T04:58:30;6.30;;;4.13;;
10303;SDS011;5197;48.152;8.590;2023-06-14T05:00:59;5.10;;;3.60;;
10303;SDS011;5197;48.152;8.590;2023-06-14T05:03:28;6.47;;;4.27;;
10303;SDS011;5197;48.152;8.590;2023-06-14T05:05:57;8.03;;;4.17;;
10303;SDS011;5197;48.152;8.590;2023-06-14T05:08:24;7.53;;;4.03;;
10303;SDS011;5197;48.152;8.590;2023-06-14T05:10:52;5.00;;;4.30;;
10303;SDS011;5197;48.152;8.590;2023-06-14T05:13:19;4.57;;;4.17;;
10303;SDS011;5197;48.152;8.590;2023-06-14T05:15:49;5.47;;;4.47;;
10303;SDS011;5197;48.152;8.590;2023-06-14T05:18:16;6.70;;;4.50;;
10303;SDS011;5197;48.152;8.590;2023-06-14T05:20:43;4.60;;;4.17;;
10303;SDS011;5197;48.152;8.590;2023-06-14T05:23:11;6.83;;;4.40;;
10303;SDS011;5197;48.152;8.590;2023-06-14T05:25:45;5.77;;;4.43;;
10303;SDS011;5197;48.152;8.590;2023-06-14T05:28:13;7.47;;;4.77;;
10303;SDS011;5197;48.152;8.590;2023-06-14T05:30:40;6.30;;;5.13;;
10303;SDS011;5197;48.152;8.590;2023-06-14T05:33:07;6.03;;;4.30;;
10303;SDS011;5197;48.152;8.590;2023-06-14T05:35:35;5.00;;;4.47;;
10303;SDS011;5197;48.152;8.590;2023-06-14T05:38:02;8.53;;;4.37;;
10303;SDS011;5197;48.152;8.590;2023-06-14T05:40:29;5.73;;;4.63;;
10303;SDS011;5197;48.152;8.590;2023-06-14T05:42:56;5.53;;;3.57;;
10303;SDS011;5197;48.152;8.590;2023-06-14T05:45:23;5.97;;;3.37;;
10303;SDS011;5197;48.152;8.590;2023-06-14T05:47:50;4.60;;;3.70;;
10303;SDS011;5197;48.152;8.590;2023-06-14T05:50:18;7.30;;;3.50;;
10303;SDS011;5197;48.152;8.590;2023-06-14T05:52:45;5.20;;;3.83;;
10303;SDS011;5197;48.152;8.590;2023-06-14T05:55:12;4.33;;;3.80;;
10303;SDS011;5197;48.152;8.590;2023-06-14T05:57:40;6.77;;;3.77;;
10303;SDS011;5197;48.152;8.590;2023-06-14T06:00:08;4.00;;;3.50;;
10303;SDS011;5197;48.152;8.590;2023-06-14T06:02:41;4.00;;;3.60;;
10303;SDS011;5197;48.152;8.590;2023-06-14T06:05:10;9.50;;;3.97;;
10303;SDS011;5197;48.152;8.590;2023-06-14T06:07:42;4.90;;;3.53;;
10303;SDS011;5197;48.152;8.590;2023-06-14T06:10:12;6.47;;;3.63;;
10303;SDS011;5197;48.152;8.590;2023-06-14T06:12:40;6.67;;;3.50;;
10303;SDS011;5197;48.152;8.590;2023-06-14T06:15:08;5.57;;;3.73;;
10303;SDS011;5197;48.152;8.590;2023-06-14T06:17:40;4.20;;;3.65;;
10303;SDS011;5197;48.152;8.590;2023-06-14T06:20:22;7.82;;;3.63;;
10303;SDS011;5197;48.152;8.590;2023-06-14T06:22:55;3.88;;;3.00;;
10303;SDS011;5197;48.152;8.590;2023-06-14T06:25:23;3.38;;;3.08;;
10303;SDS011;5197;48.152;8.590;2023-06-14T06:27:53;4.72;;;4.20;;
10303;SDS011;5197;48.152;8.590;2023-06-14T06:30:21;4.45;;;3.08;;
10303;SDS011;5197;48.152;8.590;2023-06-14T06:32:50;3.33;;;2.85;;
10303;SDS011;5197;48.152;8.590;2023-06-14T06:35:17;4.68;;;3.50;;
10303;SDS011;5197;48.152;8.590;2023-06-14T06:37:44;3.50;;;3.10;;
10303;SDS011;5197;48.152;8.590;2023-06-14T06:40:12;3.45;;;2.83;;
10303;SDS011;5197;48.152;8.590;2023-06-14T06:42:39;4.55;;;3.10;;
10303;SDS011;5197;48.152;8.590;2023-06-14T06:45:06;5.15;;;3.55;;
10303;SDS011;5197;48.152;8.590;2023-06-14T06:47:33;3.75;;;2.92;;
10303;SDS011;5197;48.152;8.590;2023-06-14T06:50:00;3.33;;;2.85;;
10303;SDS011;5197;48.152;8.590;2023-06-14T06:52:28;3.85;;;3.15;;
10303;SDS011;5197;48.152;8.590;2023-06-14T06:54:55;5.63;;;2.97;;
10303;SDS011;5197;48.152;8.590;2023-06-14T06:57:23;3.50;;;3.17;;
10303;SDS011;5197;48.152;8.590;2023-06-14T06:59:50;6.43;;;2.90;;
10303;SDS011;5197;48.152;8.590;2023-06-14T07:02:17;6.13;;;3.08;;
10303;SDS011;5197;48.152;8.590;2023-06-14T07:04:45;3.40;;;3.10;;
10303;SDS011;5197;48.152;8.590;2023-06-14T07:07:13;7.25;;;3.10;;
10303;SDS011;5197;48.152;8.590;2023-06-14T07:09:40;5.10;;;3.15;;
10303;SDS011;5197;48.152;8.590;2023-06-14T07:12:08;3.20;;;3.00;;
10303;SDS011;5197;48.152;8.590;2023-06-14T07:14:35;3.25;;;2.88;;
10303;SDS011;5197;48.152;8.590;2023-06-14T07:17:02;3.20;;;2.90;;
10303;SDS011;5197;48.152;8.590;2023-06-14T07:19:30;4.43;;;2.92;;
10303;SDS011;5197;48.152;8.590;2023-06-14T07:21:58;4.38;;;2.55;;
10303;SDS011;5197;48.152;8.590;2023-06-14T07:24:25;2.85;;;2.65;;
10303;SDS011;5197;48.152;8.590;2023-06-14T07:26:52;3.60;;;2.33;;
10303;SDS011;5197;48.152;8.590;2023-06-14T07:29:20;6.65;;;2.97;;
10303;SDS011;5197;48.152;8.590;2023-06-14T07:31:47;6.35;;;2.80;;
10303;SDS011;5197;48.152;8.590;2023-06-14T07:34:14;4.00;;;2.50;;
10303;SDS011;5197;48.152;8.590;2023-06-14T07:36:41;3.15;;;2.83;;
10303;SDS011;5197;48.152;8.590;2023-06-14T07:39:11;5.05;;;3.05;;
10303;SDS011;5197;48.152;8.590;2023-06-14T07:41:38;3.28;;;2.88;;
10303;SDS011;5197;48.152;8.590;2023-06-14T07:44:05;3.85;;;2.58;;
10303;SDS011;5197;48.152;8.590;2023-06-14T07:46:33;5.45;;;2.80;;
10303;SDS011;5197;48.152;8.590;2023-06-14T07:49:01;3.67;;;3.38;;
10303;SDS011;5197;48.152;8.590;2023-06-14T07:51:28;3.72;;;2.97;;
10303;SDS011;5197;48.152;8.590;2023-06-14T07:53:55;3.00;;;2.80;;
10303;SDS011;5197;48.152;8.590;2023-06-14T07:56:22;3.10;;;2.80;;
10303;SDS011;5197;48.152;8.590;2023-06-14T07:58:49;5.00;;;3.08;;
10303;SDS011;5197;48.152;8.590;2023-06-14T08:01:16;3.78;;;3.20;;
10303;SDS011;5197;48.152;8.590;2023-06-14T08:03:44;3.03;;;2.72;;
10303;SDS011;5197;48.152;8.590;2023-06-14T08:06:11;3.65;;;3.00;;
10303;SDS011;5197;48.152;8.590;2023-06-14T08:08:38;3.03;;;2.38;;
10303;SDS011;5197;48.152;8.590;2023-06-14T08:11:05;3.90;;;2.90;;
10303;SDS011;5197;48.152;8.590;2023-06-14T08:13:33;3.78;;;2.70;;
10303;SDS011;5197;48.152;8.590;2023-06-14T08:16:00;6.47;;;2.97;;
10303;SDS011;5197;48.152;8.590;2023-06-14T08:18:27;2.97;;;2.50;;
10303;SDS011;5197;48.152;8.590;2023-06-14T08:20:56;4.05;;;2.90;;
10303;SDS011;5197;48.152;8.590;2023-06-14T08:23:24;3.35;;;2.92;;
10303;SDS011;5197;48.152;8.590;2023-06-14T08:25:51;5.93;;;2.80;;
10303;SDS011;5197;48.152;8.590;2023-06-14T08:28:18;3.08;;;2.88;;
10303;SDS011;5197;48.152;8.590;2023-06-14T08:30:47;4.57;;;2.53;;
10303;SDS011;5197;48.152;8.590;2023-06-14T08:33:14;5.93;;;3.17;;
10303;SDS011;5197;48.152;8.590;2023-06-14T08:35:43;6.90;;;3.05;;
10303;SDS011;5197;48.152;8.590;2023-06-14T08:38:11;8.95;;;2.33;;
10303;SDS011;5197;48.152;8.590;2023-06-14T08:40:38;6.47;;;2.85;;
10303;SDS011;5197;48.152;8.590;2023-06-14T08:43:08;5.75;;;2.85;;
10303;SDS011;5197;48.152;8.590;2023-06-14T08:45:35;4.90;;;2.40;;
10303;SDS011;5197;48.152;8.590;2023-06-14T08:48:02;2.95;;;2.65;;
10303;SDS011;5197;48.152;8.590;2023-06-14T08:50:32;6.50;;;2.70;;
10303;SDS011;5197;48.152;8.590;2023-06-14T08:53:02;6.25;;;2.63;;
10303;SDS011;5197;48.152;8.590;2023-06-14T08:55:31;2.60;;;2.40;;
10303;SDS011;5197;48.152;8.590;2023-06-14T08:58:03;2.58;;;2.38;;
10303;SDS011;5197;48.152;8.590;2023-06-14T09:00:32;2.58;;;2.38;;
10303;SDS011;5197;48.152;8.590;2023-06-14T09:03:00;2.67;;;2.50;;
10303;SDS011;5197;48.152;8.590;2023-06-14T09:05:27;2.63;;;2.42;;
10303;SDS011;5197;48.152;8.590;2023-06-14T09:07:55;3.05;;;2.75;;
10303;SDS011;5197;48.152;8.590;2023-06-14T09:10:31;3.22;;;2.45;;
10303;SDS011;5197;48.152;8.590;2023-06-14T09:13:05;2.22;;;2.13;;
10303;SDS011;5197;48.152;8.590;2023-06-14T09:15:33;1.55;;;1.45;;
10303;SDS011;5197;48.152;8.590;2023-06-14T09:18:01;2.95;;;2.53;;
10303;SDS011;5197;48.152;8.590;2023-06-14T09:20:30;2.85;;;2.28;;
10303;SDS011;5197;48.152;8.590;2023-06-14T09:22:57;2.15;;;2.05;;
10303;SDS011;5197;48.152;8.590;2023-06-14T09:25:24;3.33;;;2.55;;
10303;SDS011;5197;48.152;8.590;2023-06-14T09:28:08;2.40;;;2.20;;
10303;SDS011;5197;48.152;8.590;2023-06-14T09:30:37;2.60;;;2.40;;
10303;SDS011;5197;48.152;8.590;2023-06-14T09:33:05;4.18;;;2.28;;
10303;SDS011;5197;48.152;8.590;2023-06-14T09:35:32;3.13;;;2.55;;
10303;SDS011;5197;48.152;8.590;2023-06-14T09:37:59;2.75;;;2.42;;
10303;SDS011;5197;48.152;8.590;2023-06-14T09:40:27;3.00;;;2.47;;
10303;SDS011;5197;48.152;8.590;2023-06-14T09:42:54;2.53;;;2.30;;
10303;SDS011;5197;48.152;8.590;2023-06-14T09:45:25;5.50;;;2.92;;
10303;SDS011;5197;48.152;8.590;2023-06-14T09:47:56;2.97;;;2.70;;
10303;SDS011;5197;48.152;8.590;2023-06-14T09:50:28;4.90;;;3.17;;
10303;SDS011;5197;48.152;8.590;2023-06-14T09:52:56;2.75;;;2.53;;
10303;SDS011;5197;48.152;8.590;2023-06-14T09:55:30;6.30;;;2.78;;
10303;SDS011;5197;48.152;8.590;2023-06-14T09:58:03;3.42;;;2.58;;
10303;SDS011;5197;48.152;8.590;2023-06-14T10:00:33;2.63;;;2.30;;
10303;SDS011;5197;48.152;8.590;2023-06-14T10:03:03;3.83;;;2.30;;
10303;SDS011;5197;48.152;8.590;2023-06-14T10:05:38;5.68;;;2.72;;
10303;SDS011;5197;48.152;8.590;2023-06-14T10:08:08;2.80;;;2.60;;
10303;SDS011;5197;48.152;8.590;2023-06-14T10:10:38;3.67;;;2.90;;
10303;SDS011;5197;48.152;8.590;2023-06-14T10:13:07;3.97;;;2.90;;
10303;SDS011;5197;48.152;8.590;2023-06-14T10:21:13;3.50;;;2.85;;
10303;SDS011;5197;48.152;8.590;2023-06-14T10:23:55;6.03;;;3.05;;
10303;SDS011;5197;48.152;8.590;2023-06-14T10:26:25;3.72;;;2.88;;
10303;SDS011;5197;48.152;8.590;2023-06-14T10:28:56;5.45;;;2.95;;
10303;SDS011;5197;48.152;8.590;2023-06-14T10:31:47;9.18;;;3.53;;
10303;SDS011;5197;48.152;8.590;2023-06-14T10:37:11;3.50;;;3.20;;
10303;SDS011;5197;48.152;8.590;2023-06-14T10:39:42;3.25;;;2.80;;
10303;SDS011;5197;48.152;8.590;2023-06-14T10:42:12;3.80;;;2.78;;
10303;SDS011;5197;48.152;8.590;2023-06-14T10:44:45;3.40;;;2.65;;
10303;SDS011;5197;48.152;8.590;2023-06-14T10:49:53;5.07;;;3.00;;
10303;SDS011;5197;48.152;8.590;2023-06-14T10:52:25;4.75;;;3.00;;
10303;SDS011;5197;48.152;8.590;2023-06-14T10:55:02;3.10;;;2.90;;
10303;SDS011;5197;48.152;8.590;2023-06-14T10:57:41;4.88;;;2.97;;
10303;SDS011;5197;48.152;8.590;2023-06-14T11:00:24;3.30;;;2.65;;
10303;SDS011;5197;48.152;8.590;2023-06-14T11:10:54;5.95;;;3.00;;
10303;SDS011;5197;48.152;8.590;2023-06-14T11:13:27;4.70;;;2.97;;
10303;SDS011;5197;48.152;8.590;2023-06-14T11:15:57;7.10;;;3.45;;
10303;SDS011;5197;48.152;8.590;2023-06-14T11:18:26;7.25;;;3.13;;
10303;SDS011;5197;48.152;8.590;2023-06-14T11:20:54;3.28;;;2.90;;
10303;SDS011;5197;48.152;8.590;2023-06-14T11:23:22;3.38;;;3.08;;
10303;SDS011;5197;48.152;8.590;2023-06-14T11:25:53;5.40;;;3.00;;
10303;SDS011;5197;48.152;8.590;2023-06-14T11:28:22;5.40;;;3.15;;
10303;SDS011;5197;48.152;8.590;2023-06-14T11:31:00;3.10;;;2.90;;
10303;SDS011;5197;48.152;8.590;2023-06-14T11:33:27;2.33;;;2.15;;
10303;SDS011;5197;48.152;8.590;2023-06-14T11:35:54;2.80;;;2.58;;
10303;SDS011;5197;48.152;8.590;2023-06-14T11:38:21;2.72;;;2.22;;
10303;SDS011;5197;48.152;8.590;2023-06-14T11:40:49;7.20;;;3.17;;
10303;SDS011;5197;48.152;8.590;2023-06-14T11:43:16;3.58;;;2.95;;
10303;SDS011;5197;48.152;8.590;2023-06-14T11:45:43;3.10;;;2.85;;
10303;SDS011;5197;48.152;8.590;2023-06-14T11:48:38;4.40;;;3.20;;
10303;SDS011;5197;48.152;8.590;2023-06-14T11:51:07;3.00;;;2.78;;
10303;SDS011;5197;48.152;8.590;2023-06-14T11:53:34;3.28;;;2.95;;
10303;SDS011;5197;48.152;8.590;2023-06-14T11:56:02;3.10;;;2.88;;
10303;SDS011;5197;48.152;8.590;2023-06-14T11:58:29;2.95;;;2.70;;
10303;SDS011;5197;48.152;8.590;2023-06-14T12:00:56;2.45;;;2.33;;
10303;SDS011;5197;48.152;8.590;2023-06-14T12:03:25;4.90;;;2.53;;
10303;SDS011;5197;48.152;8.590;2023-06-14T12:06:09;4.47;;;2.55;;
10303;SDS011;5197;48.152;8.590;2023-06-14T12:08:37;3.10;;;2.90;;
10303;SDS011;5197;48.152;8.590;2023-06-14T12:11:13;4.18;;;3.10;;
10303;SDS011;5197;48.152;8.590;2023-06-14T12:13:41;4.55;;;2.75;;
10303;SDS011;5197;48.152;8.590;2023-06-14T12:16:09;2.85;;;2.67;;
10303;SDS011;5197;48.152;8.590;2023-06-14T12:18:38;3.50;;;3.00;;
10303;SDS011;5197;48.152;8.590;2023-06-14T12:21:08;6.57;;;2.83;;
10303;SDS011;5197;48.152;8.590;2023-06-14T12:23:43;3.15;;;2.95;;
10303;SDS011;5197;48.152;8.590;2023-06-14T12:26:18;2.75;;;2.55;;
10303;SDS011;5197;48.152;8.590;2023-06-14T12:28:46;6.00;;;3.17;;
10303;SDS011;5197;48.152;8.590;2023-06-14T12:31:15;3.70;;;2.65;;
10303;SDS011;5197;48.152;8.590;2023-06-14T12:33:43;2.88;;;2.67;;
10303;SDS011;5197;48.152;8.590;2023-06-14T12:36:12;4.05;;;2.90;;
10303;SDS011;5197;48.152;8.590;2023-06-14T12:38:39;4.03;;;2.90;;
10303;SDS011;5197;48.152;8.590;2023-06-14T12:41:07;3.33;;;3.13;;
10303;SDS011;5197;48.152;8.590;2023-06-14T12:43:34;3.65;;;2.40;;
10303;SDS011;5197;48.152;8.590;2023-06-14T12:46:01;4.13;;;2.80;;
10303;SDS011;5197;48.152;8.590;2023-06-14T12:48:28;5.30;;;2.80;;
10303;SDS011;5197;48.152;8.590;2023-06-14T12:50:57;4.55;;;2.88;;
10303;SDS011;5197;48.152;8.590;2023-06-14T12:53:25;6.93;;;2.78;;
10303;SDS011;5197;48.152;8.590;2023-06-14T12:55:52;3.22;;;2.15;;
10303;SDS011;5197;48.152;8.590;2023-06-14T12:58:19;2.30;;;2.10;;
10303;SDS011;5197;48.152;8.590;2023-06-14T13:00:46;3.22;;;2.92;;
10303;SDS011;5197;48.152;8.590;2023-06-14T13:03:14;3.65;;;2.92;;
10303;SDS011;5197;48.152;8.590;2023-06-14T13:05:41;4.38;;;2.97;;
10303;SDS011;5197;48.152;8.590;2023-06-14T13:08:09;4.80;;;2.60;;
10303;SDS011;5197;48.152;8.590;2023-06-14T13:10:36;3.67;;;2.85;;
10303;SDS011;5197;48.152;8.590;2023-06-14T13:13:03;2.90;;;2.70;;
10303;SDS011;5197;48.152;8.590;2023-06-14T13:15:31;2.90;;;2.70;;
10303;SDS011;5197;48.152;8.590;2023-06-14T13:17:58;4.88;;;2.88;;
10303;SDS011;5197;48.152;8.590;2023-06-14T13:20:25;3.67;;;2.67;;
10303;SDS011;5197;48.152;8.590;2023-06-14T13:22:52;5.22;;;3.40;;
10303;SDS011;5197;48.152;8.590;2023-06-14T13:25:19;4.43;;;2.38;;
10303;SDS011;5197;48.152;8.590;2023-06-14T13:27:47;3.08;;;2.85;;
10303;SDS011;5197;48.152;8.590;2023-06-14T13:30:14;3.40;;;2.97;;
10303;SDS011;5197;48.152;8.590;2023-06-14T13:32:42;3.10;;;2.90;;
10303;SDS011;5197;48.152;8.590;2023-06-14T13:35:09;4.30;;;2.67;;
10303;SDS011;5197;48.152;8.590;2023-06-14T13:37:36;2.80;;;2.60;;
10303;SDS011;5197;48.152;8.590;2023-06-14T13:40:04;5.30;;;3.00;;
10303;SDS011;5197;48.152;8.590;2023-06-14T13:42:32;4.60;;;2.97;;
10303;SDS011;5197;48.152;8.590;2023-06-14T13:44:59;3.58;;;3.28;;
10303;SDS011;5197;48.152;8.590;2023-06-14T13:47:26;8.25;;;3.13;;
10303;SDS011;5197;48.152;8.590;2023-06-14T13:49:54;8.07;;;3.10;;
10303;SDS011;5197;48.152;8.590;2023-06-14T13:52:21;3.30;;;2.70;;
10303;SDS011;5197;48.152;8.590;2023-06-14T13:54:48;4.32;;;3.17;;
10303;SDS011;5197;48.152;8.590;2023-06-14T13:57:16;3.72;;;3.42;;
10303;SDS011;5197;48.152;8.590;2023-06-14T13:59:43;3.33;;;3.03;;
10303;SDS011;5197;48.152;8.590;2023-06-14T14:02:11;5.28;;;2.95;;
10303;SDS011;5197;48.152;8.590;2023-06-14T14:04:39;1.88;;;1.77;;
10303;SDS011;5197;48.152;8.590;2023-06-14T14:07:07;3.03;;;2.75;;
10303;SDS011;5197;48.152;8.590;2023-06-14T14:09:35;4.20;;;3.08;;
10303;SDS011;5197;48.152;8.590;2023-06-14T14:12:02;6.72;;;3.20;;
10303;SDS011;5197;48.152;8.590;2023-06-14T14:14:32;3.13;;;2.83;;
10303;SDS011;5197;48.152;8.590;2023-06-14T14:16:59;5.60;;;2.80;;
10303;SDS011;5197;48.152;8.590;2023-06-14T14:19:26;4.78;;;2.88;;
10303;SDS011;5197;48.152;8.590;2023-06-14T14:21:53;2.10;;;1.95;;
10303;SDS011;5197;48.152;8.590;2023-06-14T14:24:21;3.22;;;2.92;;
10303;SDS011;5197;48.152;8.590;2023-06-14T14:26:48;2.63;;;2.42;;
10303;SDS011;5197;48.152;8.590;2023-06-14T14:29:16;3.00;;;2.80;;
10303;SDS011;5197;48.152;8.590;2023-06-14T14:31:43;3.35;;;3.05;;
10303;SDS011;5197;48.152;8.590;2023-06-14T14:34:11;3.38;;;3.10;;
10303;SDS011;5197;48.152;8.590;2023-06-14T14:36:38;5.03;;;3.03;;
10303;SDS011;5197;48.152;8.590;2023-06-14T14:39:09;4.78;;;3.10;;
10303;SDS011;5197;48.152;8.590;2023-06-14T14:41:36;5.28;;;3.00;;
10303;SDS011;5197;48.152;8.590;2023-06-14T14:44:07;3.08;;;2.88;;
10303;SDS011;5197;48.152;8.590;2023-06-14T14:46:35;3.42;;;2.95;;
10303;SDS011;5197;48.152;8.590;2023-06-14T14:49:02;3.30;;;2.85;;
10303;SDS011;5197;48.152;8.590;2023-06-14T14:51:30;3.38;;;3.08;;
10303;SDS011;5197;48.152;8.590;2023-06-14T14:53:57;2.78;;;2.58;;
10303;SDS011;5197;48.152;8.590;2023-06-14T14:56:24;3.22;;;2.92;;
10303;SDS011;5197;48.152;8.590;2023-06-14T14:58:52;4.30;;;2.53;;
10303;SDS011;5197;48.152;8.590;2023-06-14T15:01:19;5.80;;;3.10;;
10303;SDS011;5197;48.152;8.590;2023-06-14T15:03:46;3.17;;;2.70;;
10303;SDS011;5197;48.152;8.590;2023-06-14T15:06:16;3.30;;;3.00;;
10303;SDS011;5197;48.152;8.590;2023-06-14T15:08:44;3.67;;;3.33;;
10303;SDS011;5197;48.152;8.590;2023-06-14T15:11:11;4.20;;;2.90;;
10303;SDS011;5197;48.152;8.590;2023-06-14T15:13:39;3.33;;;3.03;;
10303;SDS011;5197;48.152;8.590;2023-06-14T15:16:06;2.65;;;2.45;;
10303;SDS011;5197;48.152;8.590;2023-06-14T15:18:33;3.80;;;2.70;;
10303;SDS011;5197;48.152;8.590;2023-06-14T15:21:00;3.78;;;3.13;;
10303;SDS011;5197;48.152;8.590;2023-06-14T15:23:27;4.72;;;2.72;;
10303;SDS011;5197;48.152;8.590;2023-06-14T15:25:54;2.88;;;2.67;;
10303;SDS011;5197;48.152;8.590;2023-06-14T15:28:22;2.95;;;2.75;;
10303;SDS011;5197;48.152;8.590;2023-06-14T15:30:51;4.20;;;2.70;;